Aviation Digital Data Service (ADDS)

Output produced by METARs form (0410 UTC 24 May 2017)
found at http://aviationweather.gov/adds/metars/
 
KLAS 240248Z 2403/2424 09006KT P6SM SKC 
     FM240400 22007KT P6SM SKC 
     FM241400 VRB06KT P6SM SKC 
     FM241700 21013G20KT P6SM SCT250 
     FM242000 21017G28KT P6SM BKN250